sensor_id;sensor_type;location;lat;lon;timestamp;pressure;altitude;pressure_sealevel;temperature;humidity
28306;BME280;7516;43.570;1.448;2023-10-31T00:00:34;99029.25;;;10.52;100.00
28306;BME280;7516;43.570;1.448;2023-10-31T00:03:01;99042.91;;;10.47;100.00
28306;BME280;7516;43.570;1.448;2023-10-31T00:05:29;99045.09;;;10.44;100.00
28306;BME280;7516;43.570;1.448;2023-10-31T00:07:57;99042.66;;;10.42;100.00
28306;BME280;7516;43.570;1.448;2023-10-31T00:10:25;99026.94;;;10.42;100.00
28306;BME280;7516;43.570;1.448;2023-10-31T00:12:52;99016.28;;;10.44;100.00
28306;BME280;7516;43.570;1.448;2023-10-31T00:15:20;98999.19;;;10.48;100.00
28306;BME280;7516;43.570;1.448;2023-10-31T00:17:47;99000.25;;;10.53;100.00
28306;BME280;7516;43.570;1.448;2023-10-31T00:20:15;99003.09;;;10.59;100.00
28306;BME280;7516;43.570;1.448;2023-10-31T00:22:42;99009.41;;;10.64;100.00
28306;BME280;7516;43.570;1.448;2023-10-31T00:25:11;99003.78;;;10.67;100.00
28306;BME280;7516;43.570;1.448;2023-10-31T00:27:38;99002.59;;;10.70;100.00
28306;BME280;7516;43.570;1.448;2023-10-31T00:30:07;99002.22;;;10.73;100.00
28306;BME280;7516;43.570;1.448;2023-10-31T00:32:34;99004.84;;;10.73;100.00
28306;BME280;7516;43.570;1.448;2023-10-31T00:35:02;99006.25;;;10.75;100.00
28306;BME280;7516;43.570;1.448;2023-10-31T00:37:30;99013.13;;;10.76;100.00
28306;BME280;7516;43.570;1.448;2023-10-31T00:39:57;99000.63;;;10.78;100.00
28306;BME280;7516;43.570;1.448;2023-10-31T00:42:26;99006.69;;;10.79;100.00
28306;BME280;7516;43.570;1.448;2023-10-31T00:44:54;99017.97;;;10.79;100.00
28306;BME280;7516;43.570;1.448;2023-10-31T00:47:21;99017.00;;;10.80;100.00
28306;BME280;7516;43.570;1.448;2023-10-31T00:49:49;99011.53;;;10.82;100.00
28306;BME280;7516;43.570;1.448;2023-10-31T00:52:16;99014.16;;;10.82;100.00
28306;BME280;7516;43.570;1.448;2023-10-31T00:54:44;99029.50;;;10.85;100.00
28306;BME280;7516;43.570;1.448;2023-10-31T00:57:11;99028.50;;;10.86;100.00
28306;BME280;7516;43.570;1.448;2023-10-31T00:59:40;99039.81;;;10.86;100.00
28306;BME280;7516;43.570;1.448;2023-10-31T01:02:08;99046.66;;;10.87;100.00
28306;BME280;7516;43.570;1.448;2023-10-31T01:04:36;99054.34;;;10.89;100.00
28306;BME280;7516;43.570;1.448;2023-10-31T01:07:04;99071.88;;;10.88;100.00
28306;BME280;7516;43.570;1.448;2023-10-31T01:09:31;99066.66;;;10.88;100.00
28306;BME280;7516;43.570;1.448;2023-10-31T01:11:59;99063.22;;;10.88;100.00
28306;BME280;7516;43.570;1.448;2023-10-31T01:14:26;99082.38;;;10.88;100.00
28306;BME280;7516;43.570;1.448;2023-10-31T01:16:55;99072.88;;;10.87;100.00
28306;BME280;7516;43.570;1.448;2023-10-31T01:19:23;99073.69;;;10.88;100.00
28306;BME280;7516;43.570;1.448;2023-10-31T01:21:50;99086.16;;;10.86;100.00
28306;BME280;7516;43.570;1.448;2023-10-31T01:24:18;99084.19;;;10.88;100.00
28306;BME280;7516;43.570;1.448;2023-10-31T01:26:45;99077.13;;;10.88;100.00
28306;BME280;7516;43.570;1.448;2023-10-31T01:29:12;99091.84;;;10.89;100.00
28306;BME280;7516;43.570;1.448;2023-10-31T01:31:41;99097.09;;;10.89;100.00
28306;BME280;7516;43.570;1.448;2023-10-31T01:34:10;99099.72;;;10.89;100.00
28306;BME280;7516;43.570;1.448;2023-10-31T01:36:37;99086.63;;;10.89;100.00
28306;BME280;7516;43.570;1.448;2023-10-31T01:39:05;99081.38;;;10.89;100.00
28306;BME280;7516;43.570;1.448;2023-10-31T01:41:33;99087.22;;;10.91;100.00
28306;BME280;7516;43.570;1.448;2023-10-31T01:44:01;99094.09;;;10.92;100.00
28306;BME280;7516;43.570;1.448;2023-10-31T01:46:29;99088.66;;;10.94;100.00
28306;BME280;7516;43.570;1.448;2023-10-31T01:48:56;99091.09;;;10.96;100.00
28306;BME280;7516;43.570;1.448;2023-10-31T01:51:25;99083.84;;;10.98;100.00
28306;BME280;7516;43.570;1.448;2023-10-31T01:53:53;99083.84;;;10.98;100.00
28306;BME280;7516;43.570;1.448;2023-10-31T01:56:23;99081.84;;;11.00;100.00
28306;BME280;7516;43.570;1.448;2023-10-31T01:58:53;99083.44;;;11.01;100.00
28306;BME280;7516;43.570;1.448;2023-10-31T02:01:21;99093.75;;;11.02;100.00
28306;BME280;7516;43.570;1.448;2023-10-31T02:03:49;99090.13;;;11.03;100.00
28306;BME280;7516;43.570;1.448;2023-10-31T02:06:16;99105.69;;;11.05;100.00
28306;BME280;7516;43.570;1.448;2023-10-31T02:08:47;99099.63;;;11.04;100.00
28306;BME280;7516;43.570;1.448;2023-10-31T02:11:15;99094.38;;;11.04;100.00
28306;BME280;7516;43.570;1.448;2023-10-31T02:13:42;99098.00;;;11.03;100.00
28306;BME280;7516;43.570;1.448;2023-10-31T02:16:10;99101.25;;;11.05;100.00
28306;BME280;7516;43.570;1.448;2023-10-31T02:18:37;99095.19;;;11.05;100.00
28306;BME280;7516;43.570;1.448;2023-10-31T02:21:05;99094.38;;;11.04;100.00
28306;BME280;7516;43.570;1.448;2023-10-31T02:23:34;99092.75;;;11.03;100.00
28306;BME280;7516;43.570;1.448;2023-10-31T02:26:02;99094.75;;;11.01;100.00
28306;BME280;7516;43.570;1.448;2023-10-31T02:28:30;99089.91;;;10.98;100.00
28306;BME280;7516;43.570;1.448;2023-10-31T02:30:58;99091.47;;;10.92;100.00
28306;BME280;7516;43.570;1.448;2023-10-31T02:33:26;99099.91;;;10.88;100.00
28306;BME280;7516;43.570;1.448;2023-10-31T02:35:53;99091.78;;;10.83;100.00
28306;BME280;7516;43.570;1.448;2023-10-31T02:38:20;99092.19;;;10.80;100.00
28306;BME280;7516;43.570;1.448;2023-10-31T02:40:49;99097.78;;;10.77;100.00
28306;BME280;7516;43.570;1.448;2023-10-31T02:43:17;99095.34;;;10.75;100.00
28306;BME280;7516;43.570;1.448;2023-10-31T02:45:44;99090.91;;;10.76;100.00
28306;BME280;7516;43.570;1.448;2023-10-31T02:48:12;99103.03;;;10.77;100.00
28306;BME280;7516;43.570;1.448;2023-10-31T02:50:39;99106.28;;;10.79;100.00
28306;BME280;7516;43.570;1.448;2023-10-31T02:53:06;99102.47;;;10.81;100.00
28306;BME280;7516;43.570;1.448;2023-10-31T02:55:34;99092.59;;;10.83;100.00
28306;BME280;7516;43.570;1.448;2023-10-31T02:58:03;99097.28;;;10.88;100.00
28306;BME280;7516;43.570;1.448;2023-10-31T03:00:30;99105.78;;;10.90;100.00
28306;BME280;7516;43.570;1.448;2023-10-31T03:02:57;99102.13;;;10.91;100.00
28306;BME280;7516;43.570;1.448;2023-10-31T03:05:25;99096.88;;;10.91;100.00
28306;BME280;7516;43.570;1.448;2023-10-31T03:07:52;99099.72;;;10.89;100.00
28306;BME280;7516;43.570;1.448;2023-10-31T03:10:20;99098.28;;;10.87;100.00
28306;BME280;7516;43.570;1.448;2023-10-31T03:12:48;99082.28;;;10.82;100.00
28306;BME280;7516;43.570;1.448;2023-10-31T03:15:17;99088.94;;;10.78;100.00
28306;BME280;7516;43.570;1.448;2023-10-31T03:17:44;99092.72;;;10.75;100.00
28306;BME280;7516;43.570;1.448;2023-10-31T03:20:12;99098.38;;;10.72;100.00
28306;BME280;7516;43.570;1.448;2023-10-31T03:22:39;99101.16;;;10.71;100.00
28306;BME280;7516;43.570;1.448;2023-10-31T03:25:07;99096.28;;;10.68;100.00
28306;BME280;7516;43.570;1.448;2023-10-31T03:27:35;99093.03;;;10.66;100.00
28306;BME280;7516;43.570;1.448;2023-10-31T03:30:03;99091.63;;;10.63;100.00
28306;BME280;7516;43.570;1.448;2023-10-31T03:32:32;99089.19;;;10.62;100.00
28306;BME280;7516;43.570;1.448;2023-10-31T03:34:59;99097.06;;;10.62;100.00
28306;BME280;7516;43.570;1.448;2023-10-31T03:37:27;99106.91;;;10.60;100.00
28306;BME280;7516;43.570;1.448;2023-10-31T03:39:55;99102.84;;;10.57;100.00
28306;BME280;7516;43.570;1.448;2023-10-31T03:42:22;99105.03;;;10.53;100.00
28306;BME280;7516;43.570;1.448;2023-10-31T03:44:49;99110.81;;;10.49;100.00
28306;BME280;7516;43.570;1.448;2023-10-31T03:47:17;99114.00;;;10.44;100.00
28306;BME280;7516;43.570;1.448;2023-10-31T03:49:46;99114.56;;;10.40;100.00
28306;BME280;7516;43.570;1.448;2023-10-31T03:52:13;99115.53;;;10.39;100.00
28306;BME280;7516;43.570;1.448;2023-10-31T03:54:40;99114.13;;;10.36;100.00
28306;BME280;7516;43.570;1.448;2023-10-31T03:57:08;99119.09;;;10.31;100.00
28306;BME280;7516;43.570;1.448;2023-10-31T03:59:37;99109.00;;;10.28;100.00
28306;BME280;7516;43.570;1.448;2023-10-31T04:02:05;99128.50;;;10.26;100.00
28306;BME280;7516;43.570;1.448;2023-10-31T04:04:32;99133.94;;;10.24;100.00
28306;BME280;7516;43.570;1.448;2023-10-31T04:07:01;99127.88;;;10.24;100.00
28306;BME280;7516;43.570;1.448;2023-10-31T04:09:29;99130.69;;;10.22;100.00
28306;BME280;7516;43.570;1.448;2023-10-31T04:11:56;99126.44;;;10.21;100.00
28306;BME280;7516;43.570;1.448;2023-10-31T04:14:23;99127.47;;;10.20;100.00
28306;BME280;7516;43.570;1.448;2023-10-31T04:16:51;99128.78;;;10.16;100.00
28306;BME280;7516;43.570;1.448;2023-10-31T04:19:18;99134.19;;;10.14;100.00
28306;BME280;7516;43.570;1.448;2023-10-31T04:21:46;99132.94;;;10.10;100.00
28306;BME280;7516;43.570;1.448;2023-10-31T04:24:15;99137.53;;;10.08;100.00
28306;BME280;7516;43.570;1.448;2023-10-31T04:26:42;99134.28;;;10.06;100.00
28306;BME280;7516;43.570;1.448;2023-10-31T04:29:10;99136.72;;;10.08;100.00
28306;BME280;7516;43.570;1.448;2023-10-31T04:31:37;99138.53;;;10.07;100.00
28306;BME280;7516;43.570;1.448;2023-10-31T04:34:05;99140.34;;;10.07;100.00
28306;BME280;7516;43.570;1.448;2023-10-31T04:36:32;99150.19;;;10.05;100.00
28306;BME280;7516;43.570;1.448;2023-10-31T04:38:59;99154.78;;;10.03;100.00
28306;BME280;7516;43.570;1.448;2023-10-31T04:41:29;99158.41;;;10.02;100.00
28306;BME280;7516;43.570;1.448;2023-10-31T04:43:56;99162.63;;;10.03;100.00
28306;BME280;7516;43.570;1.448;2023-10-31T04:46:25;99172.91;;;10.04;100.00
28306;BME280;7516;43.570;1.448;2023-10-31T04:48:54;99166.69;;;10.05;100.00
28306;BME280;7516;43.570;1.448;2023-10-31T04:51:21;99175.19;;;10.07;100.00
28306;BME280;7516;43.570;1.448;2023-10-31T04:53:49;99168.16;;;10.08;100.00
28306;BME280;7516;43.570;1.448;2023-10-31T04:56:16;99171.94;;;10.05;100.00
28306;BME280;7516;43.570;1.448;2023-10-31T04:58:45;99170.47;;;10.03;100.00
28306;BME280;7516;43.570;1.448;2023-10-31T05:01:15;99177.72;;;10.01;100.00
28306;BME280;7516;43.570;1.448;2023-10-31T05:03:43;99185.13;;;9.97;100.00
28306;BME280;7516;43.570;1.448;2023-10-31T05:06:10;99181.88;;;9.95;100.00
28306;BME280;7516;43.570;1.448;2023-10-31T05:08:37;99188.28;;;9.93;100.00
28306;BME280;7516;43.570;1.448;2023-10-31T05:11:05;99188.63;;;9.90;100.00
28306;BME280;7516;43.570;1.448;2023-10-31T05:13:32;99197.66;;;9.87;100.00
28306;BME280;7516;43.570;1.448;2023-10-31T05:16:01;99190.63;;;9.88;100.00
28306;BME280;7516;43.570;1.448;2023-10-31T05:18:29;99201.72;;;9.90;100.00
28306;BME280;7516;43.570;1.448;2023-10-31T05:20:56;99201.09;;;9.88;100.00
28306;BME280;7516;43.570;1.448;2023-10-31T05:23:24;99195.22;;;9.86;100.00
28306;BME280;7516;43.570;1.448;2023-10-31T05:25:52;99189.38;;;9.84;100.00
28306;BME280;7516;43.570;1.448;2023-10-31T05:28:19;99196.41;;;9.83;100.00
28306;BME280;7516;43.570;1.448;2023-10-31T05:30:46;99211.28;;;9.82;100.00
28306;BME280;7516;43.570;1.448;2023-10-31T05:33:16;99207.88;;;9.82;100.00
28306;BME280;7516;43.570;1.448;2023-10-31T05:35:44;99205.41;;;9.80;100.00
28306;BME280;7516;43.570;1.448;2023-10-31T05:38:11;99206.59;;;9.78;100.00
28306;BME280;7516;43.570;1.448;2023-10-31T05:40:39;99206.97;;;9.75;100.00
28306;BME280;7516;43.570;1.448;2023-10-31T05:43:06;99211.38;;;9.74;100.00
28306;BME280;7516;43.570;1.448;2023-10-31T05:45:33;99214.00;;;9.74;100.00
28306;BME280;7516;43.570;1.448;2023-10-31T05:48:01;99221.03;;;9.74;100.00
28306;BME280;7516;43.570;1.448;2023-10-31T05:50:31;99226.25;;;9.74;100.00
28306;BME280;7516;43.570;1.448;2023-10-31T05:52:58;99230.69;;;9.73;100.00
28306;BME280;7516;43.570;1.448;2023-10-31T05:55:26;99225.88;;;9.77;100.00
28306;BME280;7516;43.570;1.448;2023-10-31T05:57:53;99230.78;;;9.80;100.00
28306;BME280;7516;43.570;1.448;2023-10-31T06:00:20;99229.78;;;9.81;100.00
28306;BME280;7516;43.570;1.448;2023-10-31T06:02:48;99232.41;;;9.81;100.00
28306;BME280;7516;43.570;1.448;2023-10-31T06:05:15;99235.47;;;9.85;100.00
28306;BME280;7516;43.570;1.448;2023-10-31T06:07:44;99246.22;;;9.90;100.00
28306;BME280;7516;43.570;1.448;2023-10-31T06:10:12;99242.25;;;9.94;100.00
28306;BME280;7516;43.570;1.448;2023-10-31T06:12:39;99246.78;;;10.00;100.00
28306;BME280;7516;43.570;1.448;2023-10-31T06:15:07;99250.03;;;10.02;100.00
28306;BME280;7516;43.570;1.448;2023-10-31T06:17:35;99251.44;;;10.04;100.00
28306;BME280;7516;43.570;1.448;2023-10-31T06:20:03;99253.06;;;10.05;100.00
28306;BME280;7516;43.570;1.448;2023-10-31T06:22:32;99259.47;;;10.03;100.00
28306;BME280;7516;43.570;1.448;2023-10-31T06:25:01;99267.72;;;10.00;100.00
28306;BME280;7516;43.570;1.448;2023-10-31T06:27:28;99269.69;;;9.98;100.00
28306;BME280;7516;43.570;1.448;2023-10-31T06:29:56;99271.50;;;9.97;100.00
28306;BME280;7516;43.570;1.448;2023-10-31T06:32:23;99276.28;;;9.94;100.00
28306;BME280;7516;43.570;1.448;2023-10-31T06:34:50;99283.50;;;9.92;100.00
28306;BME280;7516;43.570;1.448;2023-10-31T06:37:18;99283.50;;;9.92;100.00
28306;BME280;7516;43.570;1.448;2023-10-31T06:39:45;99293.97;;;9.92;100.00
28306;BME280;7516;43.570;1.448;2023-10-31T06:42:14;99296.84;;;9.97;100.00
28306;BME280;7516;43.570;1.448;2023-10-31T06:44:41;99303.47;;;10.07;100.00
28306;BME280;7516;43.570;1.448;2023-10-31T06:47:09;99301.44;;;10.17;100.00
28306;BME280;7516;43.570;1.448;2023-10-31T06:49:36;99310.34;;;10.23;100.00
28306;BME280;7516;43.570;1.448;2023-10-31T06:52:05;99307.22;;;10.28;100.00
28306;BME280;7516;43.570;1.448;2023-10-31T06:54:32;99312.88;;;10.31;100.00
28306;BME280;7516;43.570;1.448;2023-10-31T06:57:01;99317.13;;;10.32;100.00
28306;BME280;7516;43.570;1.448;2023-10-31T06:59:30;99324.47;;;10.37;100.00
28306;BME280;7516;43.570;1.448;2023-10-31T07:01:57;99324.25;;;10.38;100.00
28306;BME280;7516;43.570;1.448;2023-10-31T07:04:25;99326.34;;;10.43;100.00
28306;BME280;7516;43.570;1.448;2023-10-31T07:06:52;99338.28;;;10.45;100.00
28306;BME280;7516;43.570;1.448;2023-10-31T07:09:23;99342.53;;;10.46;100.00
28306;BME280;7516;43.570;1.448;2023-10-31T07:11:51;99351.00;;;10.48;100.00
28306;BME280;7516;43.570;1.448;2023-10-31T07:14:18;99350.03;;;10.49;100.00
28306;BME280;7516;43.570;1.448;2023-10-31T07:16:47;99353.09;;;10.53;100.00
28306;BME280;7516;43.570;1.448;2023-10-31T07:19:15;99356.16;;;10.56;100.00
28306;BME280;7516;43.570;1.448;2023-10-31T07:21:43;99361.69;;;10.62;100.00
28306;BME280;7516;43.570;1.448;2023-10-31T07:24:10;99363.56;;;10.68;100.00
28306;BME280;7516;43.570;1.448;2023-10-31T07:26:37;99363.84;;;10.73;100.00
28306;BME280;7516;43.570;1.448;2023-10-31T07:29:07;99367.72;;;10.77;100.00
28306;BME280;7516;43.570;1.448;2023-10-31T07:31:34;99364.75;;;10.80;100.00
28306;BME280;7516;43.570;1.448;2023-10-31T07:34:06;99364.94;;;10.78;100.00
28306;BME280;7516;43.570;1.448;2023-10-31T07:36:34;99372.72;;;10.72;100.00
28306;BME280;7516;43.570;1.448;2023-10-31T07:39:02;99386.16;;;10.69;100.00
28306;BME280;7516;43.570;1.448;2023-10-31T07:41:30;99390.75;;;10.67;100.00
28306;BME280;7516;43.570;1.448;2023-10-31T07:43:57;99399.63;;;10.66;100.00
28306;BME280;7516;43.570;1.448;2023-10-31T07:46:24;99397.00;;;10.66;100.00
28306;BME280;7516;43.570;1.448;2023-10-31T07:48:52;99392.41;;;10.68;100.00
28306;BME280;7516;43.570;1.448;2023-10-31T07:51:21;99395.47;;;10.71;100.00
28306;BME280;7516;43.570;1.448;2023-10-31T07:53:48;99399.34;;;10.75;100.00
28306;BME280;7516;43.570;1.448;2023-10-31T07:56:17;99385.91;;;10.78;100.00
28306;BME280;7516;43.570;1.448;2023-10-31T07:58:44;99397.44;;;10.84;100.00
28306;BME280;7516;43.570;1.448;2023-10-31T08:01:12;99398.16;;;10.92;100.00
28306;BME280;7516;43.570;1.448;2023-10-31T08:03:39;99395.28;;;11.02;100.00
28306;BME280;7516;43.570;1.448;2023-10-31T08:06:07;99407.94;;;11.13;100.00
28306;BME280;7516;43.570;1.448;2023-10-31T08:08:38;99414.59;;;11.30;100.00
28306;BME280;7516;43.570;1.448;2023-10-31T08:11:08;99414.72;;;11.44;100.00
28306;BME280;7516;43.570;1.448;2023-10-31T08:13:36;99415.06;;;11.55;100.00
28306;BME280;7516;43.570;1.448;2023-10-31T08:16:05;99417.75;;;11.62;100.00
28306;BME280;7516;43.570;1.448;2023-10-31T08:18:33;99414.94;;;11.63;100.00
28306;BME280;7516;43.570;1.448;2023-10-31T08:21:00;99420.66;;;11.67;100.00
28306;BME280;7516;43.570;1.448;2023-10-31T08:23:29;99428.59;;;11.74;100.00
28306;BME280;7516;43.570;1.448;2023-10-31T08:25:58;99441.63;;;11.82;100.00
28306;BME280;7516;43.570;1.448;2023-10-31T08:28:25;99445.88;;;11.83;100.00
28306;BME280;7516;43.570;1.448;2023-10-31T08:30:53;99447.69;;;11.82;100.00
28306;BME280;7516;43.570;1.448;2023-10-31T08:33:20;99452.94;;;11.82;100.00
28306;BME280;7516;43.570;1.448;2023-10-31T08:35:48;99454.75;;;11.82;100.00
28306;BME280;7516;43.570;1.448;2023-10-31T08:38:16;99456.38;;;11.83;100.00
28306;BME280;7516;43.570;1.448;2023-10-31T08:40:44;99458.81;;;11.84;100.00
28306;BME280;7516;43.570;1.448;2023-10-31T08:43:13;99458.47;;;11.87;100.00
28306;BME280;7516;43.570;1.448;2023-10-31T08:45:40;99455.25;;;11.92;100.00
28306;BME280;7516;43.570;1.448;2023-10-31T08:48:08;99454.94;;;12.01;100.00
28306;BME280;7516;43.570;1.448;2023-10-31T08:50:35;99455.81;;;12.09;100.00
28306;BME280;7516;43.570;1.448;2023-10-31T08:53:02;99455.06;;;12.15;100.00
28306;BME280;7516;43.570;1.448;2023-10-31T08:55:30;99459.31;;;12.16;100.00
28306;BME280;7516;43.570;1.448;2023-10-31T08:57:57;99457.50;;;12.16;100.00
28306;BME280;7516;43.570;1.448;2023-10-31T09:00:26;99463.75;;;12.15;100.00
28306;BME280;7516;43.570;1.448;2023-10-31T09:02:55;99466.19;;;12.17;100.00
28306;BME280;7516;43.570;1.448;2023-10-31T09:05:22;99468.06;;;12.23;100.00
28306;BME280;7516;43.570;1.448;2023-10-31T09:07:49;99470.19;;;12.34;100.00
28306;BME280;7516;43.570;1.448;2023-10-31T09:10:17;99467.88;;;12.46;100.00
28306;BME280;7516;43.570;1.448;2023-10-31T09:12:44;99466.28;;;12.51;100.00
28306;BME280;7516;43.570;1.448;2023-10-31T09:15:12;99473.63;;;12.56;100.00
28306;BME280;7516;43.570;1.448;2023-10-31T09:17:41;99467.59;;;12.62;100.00
28306;BME280;7516;43.570;1.448;2023-10-31T09:20:09;99472.88;;;12.68;100.00
28306;BME280;7516;43.570;1.448;2023-10-31T09:22:37;99473.72;;;12.75;100.00
28306;BME280;7516;43.570;1.448;2023-10-31T09:25:05;99475.44;;;12.83;100.00
28306;BME280;7516;43.570;1.448;2023-10-31T09:27:32;99475.47;;;12.90;100.00
28306;BME280;7516;43.570;1.448;2023-10-31T09:30:00;99479.94;;;12.96;100.00
28306;BME280;7516;43.570;1.448;2023-10-31T09:32:28;99485.47;;;13.01;100.00
28306;BME280;7516;43.570;1.448;2023-10-31T09:34:56;99485.69;;;13.06;100.00
28306;BME280;7516;43.570;1.448;2023-10-31T09:37:24;99490.81;;;13.14;100.00
28306;BME280;7516;43.570;1.448;2023-10-31T09:39:51;99494.28;;;13.21;100.00
28306;BME280;7516;43.570;1.448;2023-10-31T09:42:19;99483.19;;;13.26;100.00
28306;BME280;7516;43.570;1.448;2023-10-31T09:44:46;99489.69;;;13.30;100.00
28306;BME280;7516;43.570;1.448;2023-10-31T09:47:15;99480.81;;;13.37;100.00
28306;BME280;7516;43.570;1.448;2023-10-31T09:49:45;99481.88;;;13.49;100.00
28306;BME280;7516;43.570;1.448;2023-10-31T09:52:14;99479.72;;;13.66;100.00
28306;BME280;7516;43.570;1.448;2023-10-31T09:54:42;99492.53;;;13.82;100.00
28306;BME280;7516;43.570;1.448;2023-10-31T09:57:10;99503.91;;;13.96;100.00
28306;BME280;7516;43.570;1.448;2023-10-31T09:59:37;99495.84;;;14.04;100.00
28306;BME280;7516;43.570;1.448;2023-10-31T10:02:05;99504.56;;;14.11;100.00
28306;BME280;7516;43.570;1.448;2023-10-31T10:04:33;99493.00;;;14.19;100.00
28306;BME280;7516;43.570;1.448;2023-10-31T10:07:01;99498.28;;;14.25;100.00
28306;BME280;7516;43.570;1.448;2023-10-31T10:09:31;99497.50;;;14.31;100.00
28306;BME280;7516;43.570;1.448;2023-10-31T10:11:59;99491.03;;;14.41;100.00
28306;BME280;7516;43.570;1.448;2023-10-31T10:14:27;99490.22;;;14.47;100.00
28306;BME280;7516;43.570;1.448;2023-10-31T10:16:58;99495.69;;;14.52;100.00
28306;BME280;7516;43.570;1.448;2023-10-31T10:19:26;99492.03;;;14.53;100.00
28306;BME280;7516;43.570;1.448;2023-10-31T10:21:56;99483.56;;;14.51;100.00
28306;BME280;7516;43.570;1.448;2023-10-31T10:24:24;99488.22;;;14.49;100.00
28306;BME280;7516;43.570;1.448;2023-10-31T10:26:53;99492.88;;;14.47;100.00
28306;BME280;7516;43.570;1.448;2023-10-31T10:29:21;99489.81;;;14.43;100.00
28306;BME280;7516;43.570;1.448;2023-10-31T10:31:48;99489.63;;;14.45;100.00
28306;BME280;7516;43.570;1.448;2023-10-31T10:34:16;99491.66;;;14.49;100.00
28306;BME280;7516;43.570;1.448;2023-10-31T10:36:47;99496.31;;;14.54;100.00
28306;BME280;7516;43.570;1.448;2023-10-31T10:39:18;99489.19;;;14.61;100.00
28306;BME280;7516;43.570;1.448;2023-10-31T10:41:53;99496.72;;;14.64;100.00
28306;BME280;7516;43.570;1.448;2023-10-31T10:44:27;99502.19;;;14.69;100.00
28306;BME280;7516;43.570;1.448;2023-10-31T10:46:57;99500.97;;;14.72;100.00
28306;BME280;7516;43.570;1.448;2023-10-31T10:49:26;99507.06;;;14.72;100.00
28306;BME280;7516;43.570;1.448;2023-10-31T10:51:59;99500.38;;;14.76;100.00
28306;BME280;7516;43.570;1.448;2023-10-31T10:54:35;99491.03;;;14.80;100.00
28306;BME280;7516;43.570;1.448;2023-10-31T10:57:09;99491.63;;;14.82;100.00
28306;BME280;7516;43.570;1.448;2023-10-31T10:59:41;99502.81;;;14.84;100.00
28306;BME280;7516;43.570;1.448;2023-10-31T11:02:10;99490.22;;;14.86;100.00
28306;BME280;7516;43.570;1.448;2023-10-31T11:04:42;99495.06;;;14.89;100.00
28306;BME280;7516;43.570;1.448;2023-10-31T11:07:10;99510.91;;;14.89;100.00
28306;BME280;7516;43.570;1.448;2023-10-31T11:09:38;99504.59;;;14.97;100.00
28306;BME280;7516;43.570;1.448;2023-10-31T11:12:09;99489.34;;;15.05;100.00
28306;BME280;7516;43.570;1.448;2023-10-31T11:14:38;99492.19;;;15.11;100.00
28306;BME280;7516;43.570;1.448;2023-10-31T11:17:11;99499.09;;;15.12;100.00
28306;BME280;7516;43.570;1.448;2023-10-31T11:19:41;99500.31;;;15.16;100.00
28306;BME280;7516;43.570;1.448;2023-10-31T11:22:10;99481.78;;;15.22;100.00
28306;BME280;7516;43.570;1.448;2023-10-31T11:24:38;99494.59;;;15.25;100.00
28306;BME280;7516;43.570;1.448;2023-10-31T11:27:09;99494.78;;;15.30;100.00
28306;BME280;7516;43.570;1.448;2023-10-31T11:29:36;99487.25;;;15.34;100.00
28306;BME280;7516;43.570;1.448;2023-10-31T11:32:08;99495.38;;;15.39;100.00
28306;BME280;7516;43.570;1.448;2023-10-31T11:34:38;99489.47;;;15.43;100.00
28306;BME280;7516;43.570;1.448;2023-10-31T11:37:22;99500.84;;;15.44;100.00
28306;BME280;7516;43.570;1.448;2023-10-31T11:40:16;99482.34;;;15.44;100.00
28306;BME280;7516;43.570;1.448;2023-10-31T11:42:47;99484.38;;;15.42;100.00
28306;BME280;7516;43.570;1.448;2023-10-31T11:45:33;99485.59;;;15.39;100.00
28306;BME280;7516;43.570;1.448;2023-10-31T11:48:01;99490.09;;;15.39;100.00
28306;BME280;7516;43.570;1.448;2023-10-31T11:50:31;99497.78;;;15.40;100.00
28306;BME280;7516;43.570;1.448;2023-10-31T11:53:03;99493.13;;;15.42;100.00
28306;BME280;7516;43.570;1.448;2023-10-31T11:55:33;99477.06;;;15.44;100.00
28306;BME280;7516;43.570;1.448;2023-10-31T11:58:19;99481.50;;;15.50;100.00
28306;BME280;7516;43.570;1.448;2023-10-31T12:00:48;99479.47;;;15.59;100.00
28306;BME280;7516;43.570;1.448;2023-10-31T12:03:16;99484.75;;;15.65;100.00
28306;BME280;7516;43.570;1.448;2023-10-31T12:05:54;99481.03;;;15.73;100.00
28306;BME280;7516;43.570;1.448;2023-10-31T12:08:29;99480.81;;;15.74;100.00
28306;BME280;7516;43.570;1.448;2023-10-31T12:11:08;99482.44;;;15.75;100.00
28306;BME280;7516;43.570;1.448;2023-10-31T12:13:38;99485.06;;;15.75;100.00
28306;BME280;7516;43.570;1.448;2023-10-31T12:16:07;99487.50;;;15.77;100.00
28306;BME280;7516;43.570;1.448;2023-10-31T12:18:38;99480.38;;;15.77;100.00
28306;BME280;7516;43.570;1.448;2023-10-31T12:21:06;99476.72;;;15.78;100.00
28306;BME280;7516;43.570;1.448;2023-10-31T12:23:34;99478.97;;;15.82;100.00
28306;BME280;7516;43.570;1.448;2023-10-31T12:26:02;99472.06;;;15.80;100.00
28306;BME280;7516;43.570;1.448;2023-10-31T12:28:30;99473.69;;;15.82;100.00
28306;BME280;7516;43.570;1.448;2023-10-31T12:30:59;99466.31;;;15.84;100.00
28306;BME280;7516;43.570;1.448;2023-10-31T12:33:27;99455.34;;;15.87;100.00
28306;BME280;7516;43.570;1.448;2023-10-31T12:35:58;99455.75;;;15.90;100.00
28306;BME280;7516;43.570;1.448;2023-10-31T12:38:26;99442.88;;;15.94;100.00
28306;BME280;7516;43.570;1.448;2023-10-31T12:40:55;99450.59;;;15.95;100.00
28306;BME280;7516;43.570;1.448;2023-10-31T12:43:24;99440.63;;;15.97;100.00
28306;BME280;7516;43.570;1.448;2023-10-31T12:45:52;99452.38;;;16.01;100.00
28306;BME280;7516;43.570;1.448;2023-10-31T12:48:24;99440.97;;;16.07;100.00
28306;BME280;7516;43.570;1.448;2023-10-31T12:51:06;99444.44;;;16.08;100.00
28306;BME280;7516;43.570;1.448;2023-10-31T12:53:34;99444.22;;;16.09;100.00
28306;BME280;7516;43.570;1.448;2023-10-31T12:56:02;99439.50;;;16.11;100.00
28306;BME280;7516;43.570;1.448;2023-10-31T12:58:30;99433.22;;;16.12;100.00
28306;BME280;7516;43.570;1.448;2023-10-31T13:00:57;99434.63;;;16.15;100.00
28306;BME280;7516;43.570;1.448;2023-10-31T13:03:26;99450.63;;;16.20;100.00
28306;BME280;7516;43.570;1.448;2023-10-31T13:05:54;99442.50;;;16.22;100.00
28306;BME280;7516;43.570;1.448;2023-10-31T13:08:23;99437.00;;;16.23;100.00